sensor_id;sensor_type;location;lat;lon;timestamp;temperature;humidity
2389;DHT22;1205;47.984;7.668;2023-09-19T00:01:33;18.40;99.90
2389;DHT22;1205;47.984;7.668;2023-09-19T00:03:58;18.50;99.90
2389;DHT22;1205;47.984;7.668;2023-09-19T00:06:25;18.50;99.90
2389;DHT22;1205;47.984;7.668;2023-09-19T00:08:53;18.60;99.90
2389;DHT22;1205;47.984;7.668;2023-09-19T00:11:20;18.50;99.90
2389;DHT22;1205;47.984;7.668;2023-09-19T00:13:47;18.50;99.90
2389;DHT22;1205;47.984;7.668;2023-09-19T00:16:15;18.50;99.90
2389;DHT22;1205;47.984;7.668;2023-09-19T00:18:40;18.50;99.90
2389;DHT22;1205;47.984;7.668;2023-09-19T00:21:06;18.50;99.90
2389;DHT22;1205;47.984;7.668;2023-09-19T00:23:32;18.60;99.90
2389;DHT22;1205;47.984;7.668;2023-09-19T00:26:01;18.50;99.90
2389;DHT22;1205;47.984;7.668;2023-09-19T00:28:27;18.50;99.90
2389;DHT22;1205;47.984;7.668;2023-09-19T00:30:53;18.50;99.90
2389;DHT22;1205;47.984;7.668;2023-09-19T00:33:22;18.40;99.90
2389;DHT22;1205;47.984;7.668;2023-09-19T00:35:49;18.40;99.90
2389;DHT22;1205;47.984;7.668;2023-09-19T00:38:15;18.30;99.90
2389;DHT22;1205;47.984;7.668;2023-09-19T00:40:47;18.30;99.90
2389;DHT22;1205;47.984;7.668;2023-09-19T00:43:13;18.40;99.90
2389;DHT22;1205;47.984;7.668;2023-09-19T00:45:43;18.20;99.90
2389;DHT22;1205;47.984;7.668;2023-09-19T00:48:09;18.30;99.90
2389;DHT22;1205;47.984;7.668;2023-09-19T00:50:35;18.20;99.90
2389;DHT22;1205;47.984;7.668;2023-09-19T00:53:02;18.20;99.90
2389;DHT22;1205;47.984;7.668;2023-09-19T00:55:34;18.20;99.90
2389;DHT22;1205;47.984;7.668;2023-09-19T00:58:00;18.20;99.90
2389;DHT22;1205;47.984;7.668;2023-09-19T01:00:26;18.20;99.90
2389;DHT22;1205;47.984;7.668;2023-09-19T01:02:52;18.20;99.90
2389;DHT22;1205;47.984;7.668;2023-09-19T01:05:19;18.30;99.90
2389;DHT22;1205;47.984;7.668;2023-09-19T01:07:45;18.30;99.90
2389;DHT22;1205;47.984;7.668;2023-09-19T01:10:12;18.20;99.90
2389;DHT22;1205;47.984;7.668;2023-09-19T01:15:31;18.20;99.90
2389;DHT22;1205;47.984;7.668;2023-09-19T01:21:22;18.10;99.90
2389;DHT22;1205;47.984;7.668;2023-09-19T01:24:16;18.20;99.90
2389;DHT22;1205;47.984;7.668;2023-09-19T01:29:38;18.20;99.90
2389;DHT22;1205;47.984;7.668;2023-09-19T01:32:06;18.20;99.90
2389;DHT22;1205;47.984;7.668;2023-09-19T01:37:14;18.30;99.90
2389;DHT22;1205;47.984;7.668;2023-09-19T01:39:48;18.40;99.90
2389;DHT22;1205;47.984;7.668;2023-09-19T01:42:28;18.30;99.90
2389;DHT22;1205;47.984;7.668;2023-09-19T01:47:35;18.40;99.90
2389;DHT22;1205;47.984;7.668;2023-09-19T01:50:30;18.40;99.90
2389;DHT22;1205;47.984;7.668;2023-09-19T01:53:15;18.40;99.90
2389;DHT22;1205;47.984;7.668;2023-09-19T01:55:48;18.40;99.90
2389;DHT22;1205;47.984;7.668;2023-09-19T01:58:20;18.40;99.90
2389;DHT22;1205;47.984;7.668;2023-09-19T02:00:48;18.40;99.90
2389;DHT22;1205;47.984;7.668;2023-09-19T02:03:17;18.60;99.90
2389;DHT22;1205;47.984;7.668;2023-09-19T02:05:49;18.50;99.90
2389;DHT22;1205;47.984;7.668;2023-09-19T02:08:17;18.40;99.90
2389;DHT22;1205;47.984;7.668;2023-09-19T02:10:44;18.50;99.90
2389;DHT22;1205;47.984;7.668;2023-09-19T02:13:16;18.50;99.90
2389;DHT22;1205;47.984;7.668;2023-09-19T02:15:42;18.50;99.90
2389;DHT22;1205;47.984;7.668;2023-09-19T02:18:10;18.50;99.90
2389;DHT22;1205;47.984;7.668;2023-09-19T02:20:35;18.40;99.90
2389;DHT22;1205;47.984;7.668;2023-09-19T02:23:01;18.40;99.90
2389;DHT22;1205;47.984;7.668;2023-09-19T02:25:28;18.50;99.90
2389;DHT22;1205;47.984;7.668;2023-09-19T02:27:53;18.50;99.90
2389;DHT22;1205;47.984;7.668;2023-09-19T02:30:24;18.50;99.90
2389;DHT22;1205;47.984;7.668;2023-09-19T02:32:50;18.50;99.90
2389;DHT22;1205;47.984;7.668;2023-09-19T02:35:16;18.40;99.90
2389;DHT22;1205;47.984;7.668;2023-09-19T02:37:42;18.40;99.90
2389;DHT22;1205;47.984;7.668;2023-09-19T02:40:09;18.40;99.90
2389;DHT22;1205;47.984;7.668;2023-09-19T02:42:44;18.50;99.90
2389;DHT22;1205;47.984;7.668;2023-09-19T02:45:12;18.50;99.90
2389;DHT22;1205;47.984;7.668;2023-09-19T02:47:40;18.40;99.90
2389;DHT22;1205;47.984;7.668;2023-09-19T02:50:06;18.40;99.90
2389;DHT22;1205;47.984;7.668;2023-09-19T02:52:31;18.40;99.90
2389;DHT22;1205;47.984;7.668;2023-09-19T02:54:57;18.40;99.90
2389;DHT22;1205;47.984;7.668;2023-09-19T02:57:23;18.30;99.90
2389;DHT22;1205;47.984;7.668;2023-09-19T02:59:49;18.30;99.90
2389;DHT22;1205;47.984;7.668;2023-09-19T03:02:15;18.30;99.90
2389;DHT22;1205;47.984;7.668;2023-09-19T03:04:41;18.10;99.90
2389;DHT22;1205;47.984;7.668;2023-09-19T03:07:07;18.20;99.90
2389;DHT22;1205;47.984;7.668;2023-09-19T03:09:32;18.10;99.90
2389;DHT22;1205;47.984;7.668;2023-09-19T03:11:58;18.10;99.90
2389;DHT22;1205;47.984;7.668;2023-09-19T03:14:24;18.20;99.90
2389;DHT22;1205;47.984;7.668;2023-09-19T03:16:50;18.30;99.90
2389;DHT22;1205;47.984;7.668;2023-09-19T03:19:17;18.20;99.90
2389;DHT22;1205;47.984;7.668;2023-09-19T03:21:43;18.20;99.90
2389;DHT22;1205;47.984;7.668;2023-09-19T03:24:09;18.20;99.90
2389;DHT22;1205;47.984;7.668;2023-09-19T03:26:34;18.10;99.90
2389;DHT22;1205;47.984;7.668;2023-09-19T03:29:03;18.10;99.90
2389;DHT22;1205;47.984;7.668;2023-09-19T03:31:32;18.10;99.90
2389;DHT22;1205;47.984;7.668;2023-09-19T03:33:57;18.00;99.90
2389;DHT22;1205;47.984;7.668;2023-09-19T03:36:23;18.10;99.90
2389;DHT22;1205;47.984;7.668;2023-09-19T03:38:49;18.10;99.90
2389;DHT22;1205;47.984;7.668;2023-09-19T03:41:14;18.10;99.90
2389;DHT22;1205;47.984;7.668;2023-09-19T03:43:42;18.10;99.90
2389;DHT22;1205;47.984;7.668;2023-09-19T03:46:08;18.00;99.90
2389;DHT22;1205;47.984;7.668;2023-09-19T03:48:33;17.90;99.90
2389;DHT22;1205;47.984;7.668;2023-09-19T03:50:59;18.00;99.90
2389;DHT22;1205;47.984;7.668;2023-09-19T03:53:24;18.00;99.90
2389;DHT22;1205;47.984;7.668;2023-09-19T03:55:50;18.00;99.90
2389;DHT22;1205;47.984;7.668;2023-09-19T03:58:15;17.90;99.90
2389;DHT22;1205;47.984;7.668;2023-09-19T04:00:41;18.00;99.90
2389;DHT22;1205;47.984;7.668;2023-09-19T04:03:07;18.00;99.90
2389;DHT22;1205;47.984;7.668;2023-09-19T04:05:33;18.00;99.90
2389;DHT22;1205;47.984;7.668;2023-09-19T04:07:59;18.10;99.90
2389;DHT22;1205;47.984;7.668;2023-09-19T04:10:24;18.00;99.90
2389;DHT22;1205;47.984;7.668;2023-09-19T04:12:51;18.10;99.90
2389;DHT22;1205;47.984;7.668;2023-09-19T04:15:18;18.00;99.90
2389;DHT22;1205;47.984;7.668;2023-09-19T04:17:44;18.10;99.90
2389;DHT22;1205;47.984;7.668;2023-09-19T04:20:09;18.10;99.90
2389;DHT22;1205;47.984;7.668;2023-09-19T04:22:37;18.10;99.90
2389;DHT22;1205;47.984;7.668;2023-09-19T04:25:04;18.00;99.90
2389;DHT22;1205;47.984;7.668;2023-09-19T04:27:30;18.10;99.90
2389;DHT22;1205;47.984;7.668;2023-09-19T04:29:55;18.10;99.90
2389;DHT22;1205;47.984;7.668;2023-09-19T04:32:26;18.10;99.90
2389;DHT22;1205;47.984;7.668;2023-09-19T04:34:53;18.10;99.90
2389;DHT22;1205;47.984;7.668;2023-09-19T04:37:19;18.10;99.90
2389;DHT22;1205;47.984;7.668;2023-09-19T04:39:44;18.10;99.90
2389;DHT22;1205;47.984;7.668;2023-09-19T04:42:13;18.20;99.90
2389;DHT22;1205;47.984;7.668;2023-09-19T04:44:40;18.10;99.90
2389;DHT22;1205;47.984;7.668;2023-09-19T04:47:05;18.20;99.90
2389;DHT22;1205;47.984;7.668;2023-09-19T04:49:31;18.10;99.90
2389;DHT22;1205;47.984;7.668;2023-09-19T04:51:57;18.20;99.90
2389;DHT22;1205;47.984;7.668;2023-09-19T04:54:22;18.20;99.90
2389;DHT22;1205;47.984;7.668;2023-09-19T04:56:48;18.20;99.90
2389;DHT22;1205;47.984;7.668;2023-09-19T04:59:14;18.20;99.90
2389;DHT22;1205;47.984;7.668;2023-09-19T05:01:40;18.20;99.90
2389;DHT22;1205;47.984;7.668;2023-09-19T05:04:06;18.20;99.90
2389;DHT22;1205;47.984;7.668;2023-09-19T05:06:31;18.30;99.90
2389;DHT22;1205;47.984;7.668;2023-09-19T05:09:00;18.30;99.90
2389;DHT22;1205;47.984;7.668;2023-09-19T05:11:26;18.30;99.90
2389;DHT22;1205;47.984;7.668;2023-09-19T05:13:52;18.60;99.90
2389;DHT22;1205;47.984;7.668;2023-09-19T05:16:18;18.50;99.90
2389;DHT22;1205;47.984;7.668;2023-09-19T05:18:44;18.60;99.90
2389;DHT22;1205;47.984;7.668;2023-09-19T05:21:10;18.70;99.90
2389;DHT22;1205;47.984;7.668;2023-09-19T05:23:35;18.80;99.90
2389;DHT22;1205;47.984;7.668;2023-09-19T05:26:02;18.80;99.90
2389;DHT22;1205;47.984;7.668;2023-09-19T05:28:29;18.80;99.90
2389;DHT22;1205;47.984;7.668;2023-09-19T05:30:55;18.90;99.90
2389;DHT22;1205;47.984;7.668;2023-09-19T05:33:20;18.90;99.90
2389;DHT22;1205;47.984;7.668;2023-09-19T05:35:48;19.00;99.90
2389;DHT22;1205;47.984;7.668;2023-09-19T05:38:14;19.10;99.90
2389;DHT22;1205;47.984;7.668;2023-09-19T05:40:44;19.00;99.90
2389;DHT22;1205;47.984;7.668;2023-09-19T05:43:10;19.10;99.90
2389;DHT22;1205;47.984;7.668;2023-09-19T05:45:36;19.20;99.90
2389;DHT22;1205;47.984;7.668;2023-09-19T05:48:11;19.20;99.90
2389;DHT22;1205;47.984;7.668;2023-09-19T05:50:38;19.20;99.90
2389;DHT22;1205;47.984;7.668;2023-09-19T05:53:04;19.10;99.90
2389;DHT22;1205;47.984;7.668;2023-09-19T05:55:30;19.20;99.90
2389;DHT22;1205;47.984;7.668;2023-09-19T05:57:56;19.30;99.90
2389;DHT22;1205;47.984;7.668;2023-09-19T06:00:23;19.30;99.90
2389;DHT22;1205;47.984;7.668;2023-09-19T06:02:52;19.30;99.90
2389;DHT22;1205;47.984;7.668;2023-09-19T06:05:18;19.40;99.90
2389;DHT22;1205;47.984;7.668;2023-09-19T06:07:43;19.30;99.90
2389;DHT22;1205;47.984;7.668;2023-09-19T06:10:09;19.40;99.90
2389;DHT22;1205;47.984;7.668;2023-09-19T06:12:42;19.40;99.90
2389;DHT22;1205;47.984;7.668;2023-09-19T06:15:12;19.30;99.90
2389;DHT22;1205;47.984;7.668;2023-09-19T06:17:49;19.40;99.90
2389;DHT22;1205;47.984;7.668;2023-09-19T06:20:15;19.50;99.90
2389;DHT22;1205;47.984;7.668;2023-09-19T06:22:42;19.50;99.90
2389;DHT22;1205;47.984;7.668;2023-09-19T06:25:13;19.50;99.90
2389;DHT22;1205;47.984;7.668;2023-09-19T06:27:48;19.30;99.90
2389;DHT22;1205;47.984;7.668;2023-09-19T06:30:14;19.40;99.90
2389;DHT22;1205;47.984;7.668;2023-09-19T06:32:41;19.30;99.90
2389;DHT22;1205;47.984;7.668;2023-09-19T06:35:10;19.30;99.90
2389;DHT22;1205;47.984;7.668;2023-09-19T06:37:37;19.30;99.90
2389;DHT22;1205;47.984;7.668;2023-09-19T06:40:09;19.20;99.90
2389;DHT22;1205;47.984;7.668;2023-09-19T06:42:40;19.30;99.90
2389;DHT22;1205;47.984;7.668;2023-09-19T06:45:06;19.40;99.90
2389;DHT22;1205;47.984;7.668;2023-09-19T06:47:32;19.30;99.90
2389;DHT22;1205;47.984;7.668;2023-09-19T06:49:57;19.40;99.90
2389;DHT22;1205;47.984;7.668;2023-09-19T06:52:23;19.30;99.90
2389;DHT22;1205;47.984;7.668;2023-09-19T06:54:49;19.30;99.90
2389;DHT22;1205;47.984;7.668;2023-09-19T06:57:16;19.40;99.90
2389;DHT22;1205;47.984;7.668;2023-09-19T06:59:41;19.30;99.90
2389;DHT22;1205;47.984;7.668;2023-09-19T07:02:07;19.40;99.90
2389;DHT22;1205;47.984;7.668;2023-09-19T07:04:33;19.50;99.90
2389;DHT22;1205;47.984;7.668;2023-09-19T07:06:59;19.60;99.90
2389;DHT22;1205;47.984;7.668;2023-09-19T07:09:29;19.60;99.90
2389;DHT22;1205;47.984;7.668;2023-09-19T07:11:55;19.60;99.90
2389;DHT22;1205;47.984;7.668;2023-09-19T07:14:21;19.60;99.90
2389;DHT22;1205;47.984;7.668;2023-09-19T07:16:47;19.60;99.90
2389;DHT22;1205;47.984;7.668;2023-09-19T07:19:16;19.50;99.90
2389;DHT22;1205;47.984;7.668;2023-09-19T07:21:41;19.60;99.90
2389;DHT22;1205;47.984;7.668;2023-09-19T07:24:08;19.60;99.90
2389;DHT22;1205;47.984;7.668;2023-09-19T07:26:33;19.60;99.90
2389;DHT22;1205;47.984;7.668;2023-09-19T07:28:59;19.60;99.90
2389;DHT22;1205;47.984;7.668;2023-09-19T07:31:25;19.70;99.90
2389;DHT22;1205;47.984;7.668;2023-09-19T07:33:52;19.80;99.90
2389;DHT22;1205;47.984;7.668;2023-09-19T07:36:18;19.80;99.90
2389;DHT22;1205;47.984;7.668;2023-09-19T07:38:45;19.90;99.90
2389;DHT22;1205;47.984;7.668;2023-09-19T07:41:10;20.10;99.90
2389;DHT22;1205;47.984;7.668;2023-09-19T07:43:36;20.20;99.90
2389;DHT22;1205;47.984;7.668;2023-09-19T07:46:07;20.20;99.90
2389;DHT22;1205;47.984;7.668;2023-09-19T07:48:35;20.20;99.90
2389;DHT22;1205;47.984;7.668;2023-09-19T07:51:10;20.40;99.90
2389;DHT22;1205;47.984;7.668;2023-09-19T07:53:36;20.30;99.90
2389;DHT22;1205;47.984;7.668;2023-09-19T07:56:06;20.40;99.90
2389;DHT22;1205;47.984;7.668;2023-09-19T07:58:32;20.40;99.90
2389;DHT22;1205;47.984;7.668;2023-09-19T08:01:09;20.50;99.90
2389;DHT22;1205;47.984;7.668;2023-09-19T08:03:36;20.60;99.90
2389;DHT22;1205;47.984;7.668;2023-09-19T08:06:06;20.60;99.90
2389;DHT22;1205;47.984;7.668;2023-09-19T08:08:33;20.80;99.90
2389;DHT22;1205;47.984;7.668;2023-09-19T08:11:03;20.80;99.90
2389;DHT22;1205;47.984;7.668;2023-09-19T08:13:37;20.90;99.90
2389;DHT22;1205;47.984;7.668;2023-09-19T08:16:09;20.90;99.90
2389;DHT22;1205;47.984;7.668;2023-09-19T08:18:35;21.00;99.90
2389;DHT22;1205;47.984;7.668;2023-09-19T08:21:00;20.90;99.90
2389;DHT22;1205;47.984;7.668;2023-09-19T08:23:26;20.90;99.90
2389;DHT22;1205;47.984;7.668;2023-09-19T08:25:56;21.00;99.90
2389;DHT22;1205;47.984;7.668;2023-09-19T08:28:23;21.00;99.90
2389;DHT22;1205;47.984;7.668;2023-09-19T08:30:50;21.00;99.90
2389;DHT22;1205;47.984;7.668;2023-09-19T08:33:16;21.00;99.90
2389;DHT22;1205;47.984;7.668;2023-09-19T08:35:42;21.00;99.90
2389;DHT22;1205;47.984;7.668;2023-09-19T08:38:09;21.10;99.90
2389;DHT22;1205;47.984;7.668;2023-09-19T08:40:39;21.20;99.90
2389;DHT22;1205;47.984;7.668;2023-09-19T08:43:06;21.10;99.90
2389;DHT22;1205;47.984;7.668;2023-09-19T08:45:33;20.90;99.90
2389;DHT22;1205;47.984;7.668;2023-09-19T08:48:28;21.00;99.90
2389;DHT22;1205;47.984;7.668;2023-09-19T08:51:06;21.10;99.90
2389;DHT22;1205;47.984;7.668;2023-09-19T08:53:52;21.20;99.90
2389;DHT22;1205;47.984;7.668;2023-09-19T08:56:20;21.40;99.90
2389;DHT22;1205;47.984;7.668;2023-09-19T08:58:53;21.50;99.90
2389;DHT22;1205;47.984;7.668;2023-09-19T09:01:20;21.50;99.90
2389;DHT22;1205;47.984;7.668;2023-09-19T09:03:54;21.60;99.90
2389;DHT22;1205;47.984;7.668;2023-09-19T09:06:22;21.50;99.90
2389;DHT22;1205;47.984;7.668;2023-09-19T09:08:50;21.50;99.90
2389;DHT22;1205;47.984;7.668;2023-09-19T09:11:16;21.50;99.90
2389;DHT22;1205;47.984;7.668;2023-09-19T09:13:47;21.50;99.90
2389;DHT22;1205;47.984;7.668;2023-09-19T09:16:14;21.50;99.90
2389;DHT22;1205;47.984;7.668;2023-09-19T09:18:44;21.50;99.90
2389;DHT22;1205;47.984;7.668;2023-09-19T09:21:11;21.50;99.90
2389;DHT22;1205;47.984;7.668;2023-09-19T09:23:36;21.50;99.90
2389;DHT22;1205;47.984;7.668;2023-09-19T09:26:02;21.40;99.90
2389;DHT22;1205;47.984;7.668;2023-09-19T09:28:30;21.30;99.90
2389;DHT22;1205;47.984;7.668;2023-09-19T09:30:57;21.30;99.90
2389;DHT22;1205;47.984;7.668;2023-09-19T09:33:33;21.40;99.90
2389;DHT22;1205;47.984;7.668;2023-09-19T09:36:01;21.30;99.90
2389;DHT22;1205;47.984;7.668;2023-09-19T09:38:48;21.50;99.90
2389;DHT22;1205;47.984;7.668;2023-09-19T09:41:16;21.50;99.90
2389;DHT22;1205;47.984;7.668;2023-09-19T09:43:53;21.60;99.90
2389;DHT22;1205;47.984;7.668;2023-09-19T09:46:21;21.80;99.90
2389;DHT22;1205;47.984;7.668;2023-09-19T09:49:02;21.70;99.70
2389;DHT22;1205;47.984;7.668;2023-09-19T09:54:16;21.50;99.70
2389;DHT22;1205;47.984;7.668;2023-09-19T09:56:56;21.40;99.90
2389;DHT22;1205;47.984;7.668;2023-09-19T09:59:47;21.50;99.90
2389;DHT22;1205;47.984;7.668;2023-09-19T10:02:29;21.50;98.70
2389;DHT22;1205;47.984;7.668;2023-09-19T10:04:57;21.60;99.00
2389;DHT22;1205;47.984;7.668;2023-09-19T10:07:40;21.50;97.50
2389;DHT22;1205;47.984;7.668;2023-09-19T10:10:13;21.50;97.50
2389;DHT22;1205;47.984;7.668;2023-09-19T10:12:43;21.40;98.40
2389;DHT22;1205;47.984;7.668;2023-09-19T10:15:11;21.50;98.90
2389;DHT22;1205;47.984;7.668;2023-09-19T10:17:45;21.50;99.20
2389;DHT22;1205;47.984;7.668;2023-09-19T10:20:17;21.60;98.90
2389;DHT22;1205;47.984;7.668;2023-09-19T10:23:01;21.70;98.10
2389;DHT22;1205;47.984;7.668;2023-09-19T10:25:29;21.60;98.30
2389;DHT22;1205;47.984;7.668;2023-09-19T10:27:57;21.60;97.60
2389;DHT22;1205;47.984;7.668;2023-09-19T10:30:29;21.70;98.00
2389;DHT22;1205;47.984;7.668;2023-09-19T10:33:04;21.60;96.90
2389;DHT22;1205;47.984;7.668;2023-09-19T10:35:32;21.60;98.40
2389;DHT22;1205;47.984;7.668;2023-09-19T10:38:00;21.60;98.10
2389;DHT22;1205;47.984;7.668;2023-09-19T10:40:27;21.70;98.00
2389;DHT22;1205;47.984;7.668;2023-09-19T10:43:03;21.70;97.70
2389;DHT22;1205;47.984;7.668;2023-09-19T10:45:34;21.70;97.10
2389;DHT22;1205;47.984;7.668;2023-09-19T10:48:01;21.80;96.40
2389;DHT22;1205;47.984;7.668;2023-09-19T10:50:35;22.00;96.10
2389;DHT22;1205;47.984;7.668;2023-09-19T10:53:04;22.10;96.00
2389;DHT22;1205;47.984;7.668;2023-09-19T10:55:33;22.00;95.10
2389;DHT22;1205;47.984;7.668;2023-09-19T10:58:01;22.00;96.30
2389;DHT22;1205;47.984;7.668;2023-09-19T11:00:30;22.10;95.40
2389;DHT22;1205;47.984;7.668;2023-09-19T11:08:54;22.00;94.80
2389;DHT22;1205;47.984;7.668;2023-09-19T11:30:38;22.60;93.80
2389;DHT22;1205;47.984;7.668;2023-09-19T11:36:11;22.70;93.50
2389;DHT22;1205;47.984;7.668;2023-09-19T11:49:19;22.90;92.70
2389;DHT22;1205;47.984;7.668;2023-09-19T11:51:53;22.90;93.20
2389;DHT22;1205;47.984;7.668;2023-09-19T11:54:20;23.00;92.90
2389;DHT22;1205;47.984;7.668;2023-09-19T11:56:49;22.90;92.60
2389;DHT22;1205;47.984;7.668;2023-09-19T12:01:52;23.00;93.40
2389;DHT22;1205;47.984;7.668;2023-09-19T12:07:07;23.00;91.50
2389;DHT22;1205;47.984;7.668;2023-09-19T12:09:39;23.00;90.70
2389;DHT22;1205;47.984;7.668;2023-09-19T12:12:06;23.10;92.70
2389;DHT22;1205;47.984;7.668;2023-09-19T12:14:31;23.10;91.60
2389;DHT22;1205;47.984;7.668;2023-09-19T12:16:58;23.20;91.70
2389;DHT22;1205;47.984;7.668;2023-09-19T12:19:26;23.00;90.90
2389;DHT22;1205;47.984;7.668;2023-09-19T12:24:24;23.00;92.10
2389;DHT22;1205;47.984;7.668;2023-09-19T12:26:52;23.10;92.00
2389;DHT22;1205;47.984;7.668;2023-09-19T12:29:18;23.20;90.80
2389;DHT22;1205;47.984;7.668;2023-09-19T12:31:51;23.20;91.50
2389;DHT22;1205;47.984;7.668;2023-09-19T12:34:20;23.30;91.80
2389;DHT22;1205;47.984;7.668;2023-09-19T12:36:46;23.30;89.80
2389;DHT22;1205;47.984;7.668;2023-09-19T12:39:22;23.30;89.90
2389;DHT22;1205;47.984;7.668;2023-09-19T12:41:50;23.30;88.50
2389;DHT22;1205;47.984;7.668;2023-09-19T12:44:16;23.30;90.20
2389;DHT22;1205;47.984;7.668;2023-09-19T12:46:43;23.40;90.20
2389;DHT22;1205;47.984;7.668;2023-09-19T12:49:17;23.40;88.10
2389;DHT22;1205;47.984;7.668;2023-09-19T12:51:43;23.40;88.70
2389;DHT22;1205;47.984;7.668;2023-09-19T12:54:09;23.50;88.90
2389;DHT22;1205;47.984;7.668;2023-09-19T12:56:41;23.50;90.00
2389;DHT22;1205;47.984;7.668;2023-09-19T12:59:12;23.50;90.10
2389;DHT22;1205;47.984;7.668;2023-09-19T13:01:40;23.50;86.80
2389;DHT22;1205;47.984;7.668;2023-09-19T13:04:18;23.50;87.20
2389;DHT22;1205;47.984;7.668;2023-09-19T13:06:49;23.50;90.00
2389;DHT22;1205;47.984;7.668;2023-09-19T13:09:16;23.60;88.40
2389;DHT22;1205;47.984;7.668;2023-09-19T13:11:43;23.60;86.40
2389;DHT22;1205;47.984;7.668;2023-09-19T13:14:20;23.60;88.60
2389;DHT22;1205;47.984;7.668;2023-09-19T13:19:43;23.70;87.00
2389;DHT22;1205;47.984;7.668;2023-09-19T13:25:09;23.70;85.10
2389;DHT22;1205;47.984;7.668;2023-09-19T13:27:44;23.70;84.70
2389;DHT22;1205;47.984;7.668;2023-09-19T13:30:11;23.70;86.30
2389;DHT22;1205;47.984;7.668;2023-09-19T13:32:37;23.70;85.20
2389;DHT22;1205;47.984;7.668;2023-09-19T13:35:04;23.70;84.50
2389;DHT22;1205;47.984;7.668;2023-09-19T13:37:30;23.80;84.60
2389;DHT22;1205;47.984;7.668;2023-09-19T13:39:56;23.80;86.70
2389;DHT22;1205;47.984;7.668;2023-09-19T13:42:24;23.80;83.10
2389;DHT22;1205;47.984;7.668;2023-09-19T13:44:50;23.80;82.50
2389;DHT22;1205;47.984;7.668;2023-09-19T13:47:16;23.80;82.60
2389;DHT22;1205;47.984;7.668;2023-09-19T13:49:50;23.80;83.10
2389;DHT22;1205;47.984;7.668;2023-09-19T13:52:20;23.70;85.10
2389;DHT22;1205;47.984;7.668;2023-09-19T13:54:47;23.80;81.20
2389;DHT22;1205;47.984;7.668;2023-09-19T13:57:13;23.80;78.50
2389;DHT22;1205;47.984;7.668;2023-09-19T13:59:39;23.70;80.70
2389;DHT22;1205;47.984;7.668;2023-09-19T14:02:05;23.80;80.80
2389;DHT22;1205;47.984;7.668;2023-09-19T14:04:32;23.80;82.90
2389;DHT22;1205;47.984;7.668;2023-09-19T14:07:00;23.80;81.90
2389;DHT22;1205;47.984;7.668;2023-09-19T14:09:26;23.80;84.50
2389;DHT22;1205;47.984;7.668;2023-09-19T14:11:52;23.70;83.60
2389;DHT22;1205;47.984;7.668;2023-09-19T14:14:18;23.70;82.60
2389;DHT22;1205;47.984;7.668;2023-09-19T14:16:46;23.70;82.70
2389;DHT22;1205;47.984;7.668;2023-09-19T14:19:11;23.70;82.50
2389;DHT22;1205;47.984;7.668;2023-09-19T14:21:37;23.70;82.30
2389;DHT22;1205;47.984;7.668;2023-09-19T14:24:04;23.70;84.20
2389;DHT22;1205;47.984;7.668;2023-09-19T14:26:37;23.70;83.00
2389;DHT22;1205;47.984;7.668;2023-09-19T14:29:03;23.70;84.50
2389;DHT22;1205;47.984;7.668;2023-09-19T14:31:28;23.70;85.70
2389;DHT22;1205;47.984;7.668;2023-09-19T14:33:57;23.80;85.60
2389;DHT22;1205;47.984;7.668;2023-09-19T14:36:25;23.70;85.50
2389;DHT22;1205;47.984;7.668;2023-09-19T14:38:55;23.70;87.50
2389;DHT22;1205;47.984;7.668;2023-09-19T14:41:22;23.70;88.60
2389;DHT22;1205;47.984;7.668;2023-09-19T14:43:49;23.80;87.00
2389;DHT22;1205;47.984;7.668;2023-09-19T14:46:14;23.80;86.40
2389;DHT22;1205;47.984;7.668;2023-09-19T14:48:41;23.70;84.90
2389;DHT22;1205;47.984;7.668;2023-09-19T14:51:07;23.70;86.10
2389;DHT22;1205;47.984;7.668;2023-09-19T14:53:37;23.60;86.30
2389;DHT22;1205;47.984;7.668;2023-09-19T14:56:07;23.60;87.20
2389;DHT22;1205;47.984;7.668;2023-09-19T14:58:34;23.50;87.10
2389;DHT22;1205;47.984;7.668;2023-09-19T15:03:29;23.50;86.00
2389;DHT22;1205;47.984;7.668;2023-09-19T15:06:07;23.50;86.60
2389;DHT22;1205;47.984;7.668;2023-09-19T15:08:35;23.50;88.00
2389;DHT22;1205;47.984;7.668;2023-09-19T15:11:07;23.50;88.00
2389;DHT22;1205;47.984;7.668;2023-09-19T15:13:36;23.50;88.30
2389;DHT22;1205;47.984;7.668;2023-09-19T15:16:04;23.40;89.10
2389;DHT22;1205;47.984;7.668;2023-09-19T15:18:31;23.40;88.20
2389;DHT22;1205;47.984;7.668;2023-09-19T15:21:02;23.40;88.80
2389;DHT22;1205;47.984;7.668;2023-09-19T15:23:33;23.40;90.10
2389;DHT22;1205;47.984;7.668;2023-09-19T15:26:12;23.30;89.80
2389;DHT22;1205;47.984;7.668;2023-09-19T15:28:38;23.30;90.30
2389;DHT22;1205;47.984;7.668;2023-09-19T15:31:08;23.30;89.80
2389;DHT22;1205;47.984;7.668;2023-09-19T15:33:34;23.30;89.40
2389;DHT22;1205;47.984;7.668;2023-09-19T15:36:04;23.30;89.90
2389;DHT22;1205;47.984;7.668;2023-09-19T15:38:30;23.30;88.70
2389;DHT22;1205;47.984;7.668;2023-09-19T15:40:59;23.30;89.60
2389;DHT22;1205;47.984;7.668;2023-09-19T15:43:25;23.30;89.80
2389;DHT22;1205;47.984;7.668;2023-09-19T15:45:51;23.20;88.10
2389;DHT22;1205;47.984;7.668;2023-09-19T15:48:17;23.20;88.10
2389;DHT22;1205;47.984;7.668;2023-09-19T15:50:44;23.20;88.80
2389;DHT22;1205;47.984;7.668;2023-09-19T15:53:10;23.20;89.10
2389;DHT22;1205;47.984;7.668;2023-09-19T15:55:39;23.10;90.00
2389;DHT22;1205;47.984;7.668;2023-09-19T15:58:08;23.10;89.20
2389;DHT22;1205;47.984;7.668;2023-09-19T16:00:33;23.10;90.00
2389;DHT22;1205;47.984;7.668;2023-09-19T16:03:02;23.10;89.60
2389;DHT22;1205;47.984;7.668;2023-09-19T16:05:34;23.10;90.40
2389;DHT22;1205;47.984;7.668;2023-09-19T16:08:03;23.10;88.80
2389;DHT22;1205;47.984;7.668;2023-09-19T16:10:29;23.10;90.00
2389;DHT22;1205;47.984;7.668;2023-09-19T16:12:55;23.10;90.60
2389;DHT22;1205;47.984;7.668;2023-09-19T16:15:20;23.00;90.50
2389;DHT22;1205;47.984;7.668;2023-09-19T16:17:46;23.00;90.20
2389;DHT22;1205;47.984;7.668;2023-09-19T16:20:12;22.90;91.00
2389;DHT22;1205;47.984;7.668;2023-09-19T16:22:39;22.90;90.70
2389;DHT22;1205;47.984;7.668;2023-09-19T16:25:05;22.90;90.40
2389;DHT22;1205;47.984;7.668;2023-09-19T16:27:31;22.90;90.50
2389;DHT22;1205;47.984;7.668;2023-09-19T16:29:57;22.80;90.20
2389;DHT22;1205;47.984;7.668;2023-09-19T16:32:22;22.80;90.20
2389;DHT22;1205;47.984;7.668;2023-09-19T16:34:48;22.80;90.80
2389;DHT22;1205;47.984;7.668;2023-09-19T16:37:13;22.80;90.80
2389;DHT22;1205;47.984;7.668;2023-09-19T16:39:42;22.70;90.30
2389;DHT22;1205;47.984;7.668;2023-09-19T16:42:08;22.70;90.50
2389;DHT22;1205;47.984;7.668;2023-09-19T16:44:35;22.70;90.40
2389;DHT22;1205;47.984;7.668;2023-09-19T16:47:00;22.60;90.60
2389;DHT22;1205;47.984;7.668;2023-09-19T16:49:28;22.60;90.70
2389;DHT22;1205;47.984;7.668;2023-09-19T16:51:55;22.60;91.40
2389;DHT22;1205;47.984;7.668;2023-09-19T16:54:21;22.50;90.90
2389;DHT22;1205;47.984;7.668;2023-09-19T16:56:46;22.50;91.80
2389;DHT22;1205;47.984;7.668;2023-09-19T16:59:12;22.40;91.30
2389;DHT22;1205;47.984;7.668;2023-09-19T17:01:38;22.40;91.20
2389;DHT22;1205;47.984;7.668;2023-09-19T17:04:04;22.40;91.10
2389;DHT22;1205;47.984;7.668;2023-09-19T17:06:31;22.40;91.30
2389;DHT22;1205;47.984;7.668;2023-09-19T17:08:56;22.30;91.50
2389;DHT22;1205;47.984;7.668;2023-09-19T17:11:22;22.30;91.80
2389;DHT22;1205;47.984;7.668;2023-09-19T17:13:50;22.20;91.80
2389;DHT22;1205;47.984;7.668;2023-09-19T17:16:18;22.20;92.30
2389;DHT22;1205;47.984;7.668;2023-09-19T17:18:49;22.10;92.00
2389;DHT22;1205;47.984;7.668;2023-09-19T17:21:15;22.10;92.10